Long Beach /Daugherty Field/ Airport
KLGB : now visible

Airfield :











YOU CAN JOIN US ON...

 
LOGIN :

Register | Disclaimer

   EN    FR    IT 

 









Legend :    VFR   Marginal VFR   IFR   Intensive IFR   Very Intensive IFR
Visi :
Ceiling :
>= 8 km
>= 3000ft
5 to 8 km
1000 to 3000 ft
1500m to 5 km
500 to 1000 ft
800 to 1500m
200 to 500 ft
< 800m
< 200 ft
Symbols :   Thunderstorms  Fog  Heavy snow  Heavy precipitations  Wind > 20 kt






- Airport Elevation : 60 ft
- IATA code : LGB


KLGB - Long Beach /Daugherty Field/

CURRENT METAR :
  • 092353Z AUTO 11006KT 3SM -RA BR BKN055 OVC070 12/10 A3007 RMK AO2 SLP184 P0013 60039 T01170100 10133 20117 57004

EXPIRED METARs :
  • 092326Z AUTO 14004KT 3SM RA BR FEW013 BKN048 OVC060 12/09 A3008 RMK AO2 P0010 T01170094
  • 092318Z AUTO 15003KT 3SM RA BR SCT013 BKN026 OVC060 12/09 A3008 RMK AO2 P0008 T01170094
  • 092255Z 18004KT 3SM R30/4000VP6000FT RA BR BKN010 BKN028 OVC035 12/10 A3008 RMK AO2 P0001 T01170100
  • 092248Z 22004KT 3SM R30/5500VP6000FT +RA BR SCT010 BKN015 OVC049 12/10 A3008 RMK AO2 P0012
  • 092210Z 21004KT 3SM -RA BR FEW009 BKN040 OVC047 12/10 A3008 RMK AO2 P0006 T01220100
  • 092202Z 00000KT 2SM +RA BR FEW009 BKN043 OVC055 12/10 A3009 RMK AO2 P0004 T01220100
  • 092153Z 18004KT 5SM RA BR SCT042 OVC055 12/10 A3009 RMK AO2 SLP188 P0005 T01220100

TAF KLGB
Valid from the 10 at 00:00 until the 11 at 00:00 UTC


092337Z 1000/1024 14006KT 3SM RA BR SCT012 BKN045
FM100600 08008KT P6SM -RA BKN025 OVC050
FM101500 09005KT P6SM -SHRA OVC050
FM102100 26009KT P6SM BKN050



MET'MAP, your aeronautical weather chart ! - Copyright ORBIFLY December 2007 - Disclaimer

ORBIFLY MET'MAP TEAM :

Programming & Development : Alexandra Zaïnal
Concept & original design : Baudouin d'Aumeries
Assistance for programming : Marc-Olivier Méhu
Technical & hardware support : Manuel Goepfert

Contact : metmap@orbifly.com




SOURCES & CREDITS :

   NOAA       Earth
Advisory